sensor_id;sensor_type;location;lat;lon;timestamp;pressure;altitude;pressure_sealevel;temperature;humidity
23733;BME280;12047;53.450;-2.286;2023-02-01T00:02:25;101827.34;;;11.92;100.00
23733;BME280;12047;53.450;-2.286;2023-02-01T00:07:26;101839.03;;;11.79;100.00
23733;BME280;12047;53.450;-2.286;2023-02-01T00:12:27;101847.63;;;12.38;100.00
23733;BME280;12047;53.450;-2.286;2023-02-01T00:17:27;101839.53;;;11.95;100.00
23733;BME280;12047;53.450;-2.286;2023-02-01T00:22:28;101847.13;;;11.88;100.00
23733;BME280;12047;53.450;-2.286;2023-02-01T00:27:29;101848.72;;;12.47;100.00
23733;BME280;12047;53.450;-2.286;2023-02-01T00:32:29;101853.69;;;12.18;100.00
23733;BME280;12047;53.450;-2.286;2023-02-01T00:37:32;101842.56;;;12.13;100.00
23733;BME280;12047;53.450;-2.286;2023-02-01T00:42:32;101838.94;;;12.03;100.00
23733;BME280;12047;53.450;-2.286;2023-02-01T00:47:33;101859.81;;;11.96;100.00
23733;BME280;12047;53.450;-2.286;2023-02-01T00:52:33;101845.63;;;11.73;100.00
23733;BME280;12047;53.450;-2.286;2023-02-01T00:57:37;101849.78;;;11.77;100.00
23733;BME280;12047;53.450;-2.286;2023-02-01T01:02:37;101844.25;;;11.80;100.00
23733;BME280;12047;53.450;-2.286;2023-02-01T01:07:41;101830.34;;;11.77;100.00
23733;BME280;12047;53.450;-2.286;2023-02-01T01:12:41;101810.69;;;11.33;100.00
23733;BME280;12047;53.450;-2.286;2023-02-01T01:17:45;101814.94;;;11.47;100.00
23733;BME280;12047;53.450;-2.286;2023-02-01T01:22:45;101814.34;;;11.66;100.00
23733;BME280;12047;53.450;-2.286;2023-02-01T01:27:46;101821.00;;;11.60;100.00
23733;BME280;12047;53.450;-2.286;2023-02-01T01:32:47;101826.78;;;11.54;100.00
23733;BME280;12047;53.450;-2.286;2023-02-01T01:37:48;101824.13;;;11.65;100.00
23733;BME280;12047;53.450;-2.286;2023-02-01T01:42:48;101823.78;;;11.58;100.00
23733;BME280;12047;53.450;-2.286;2023-02-01T01:47:58;101835.47;;;11.67;100.00
23733;BME280;12047;53.450;-2.286;2023-02-01T01:53:02;101832.34;;;11.73;100.00
23733;BME280;12047;53.450;-2.286;2023-02-01T01:58:06;101826.31;;;11.25;100.00
23733;BME280;12047;53.450;-2.286;2023-02-01T02:03:30;101829.81;;;11.72;100.00
23733;BME280;12047;53.450;-2.286;2023-02-01T02:08:34;101831.06;;;11.79;100.00
23733;BME280;12047;53.450;-2.286;2023-02-01T02:13:42;101830.06;;;11.69;100.00
23733;BME280;12047;53.450;-2.286;2023-02-01T02:30:02;101828.31;;;11.45;100.00
23733;BME280;12047;53.450;-2.286;2023-02-01T02:45:53;101834.84;;;11.52;100.00
23733;BME280;12047;53.450;-2.286;2023-02-01T02:51:49;101824.81;;;11.45;100.00
23733;BME280;12047;53.450;-2.286;2023-02-01T02:57:19;101816.44;;;11.73;100.00
23733;BME280;12047;53.450;-2.286;2023-02-01T03:02:40;101821.31;;;11.44;100.00
23733;BME280;12047;53.450;-2.286;2023-02-01T03:08:25;101808.78;;;11.46;100.00
23733;BME280;12047;53.450;-2.286;2023-02-01T03:19:29;101783.38;;;11.88;100.00
23733;BME280;12047;53.450;-2.286;2023-02-01T03:24:50;101782.88;;;11.72;100.00
23733;BME280;12047;53.450;-2.286;2023-02-01T03:30:02;101785.66;;;11.71;100.00
23733;BME280;12047;53.450;-2.286;2023-02-01T03:35:06;101771.38;;;11.49;100.00
23733;BME280;12047;53.450;-2.286;2023-02-01T03:40:08;101763.72;;;11.80;100.00
23733;BME280;12047;53.450;-2.286;2023-02-01T03:45:13;101760.34;;;12.00;100.00
23733;BME280;12047;53.450;-2.286;2023-02-01T03:50:17;101758.38;;;11.57;100.00
23733;BME280;12047;53.450;-2.286;2023-02-01T03:55:24;101745.34;;;11.88;100.00
23733;BME280;12047;53.450;-2.286;2023-02-01T04:00:26;101756.72;;;11.90;100.00
23733;BME280;12047;53.450;-2.286;2023-02-01T04:05:27;101761.19;;;11.78;100.00
23733;BME280;12047;53.450;-2.286;2023-02-01T04:10:30;101751.09;;;11.37;100.00
23733;BME280;12047;53.450;-2.286;2023-02-01T04:15:31;101746.91;;;11.57;100.00
23733;BME280;12047;53.450;-2.286;2023-02-01T04:20:32;101761.69;;;11.26;100.00
23733;BME280;12047;53.450;-2.286;2023-02-01T04:25:33;101761.69;;;11.26;100.00
23733;BME280;12047;53.450;-2.286;2023-02-01T04:30:34;101758.28;;;11.13;100.00
23733;BME280;12047;53.450;-2.286;2023-02-01T04:35:34;101752.66;;;11.40;100.00
23733;BME280;12047;53.450;-2.286;2023-02-01T04:40:35;101757.72;;;11.32;100.00
23733;BME280;12047;53.450;-2.286;2023-02-01T04:45:38;101751.97;;;11.38;100.00
23733;BME280;12047;53.450;-2.286;2023-02-01T04:50:38;101742.16;;;11.27;100.00
23733;BME280;12047;53.450;-2.286;2023-02-01T04:55:39;101756.19;;;11.05;100.00
23733;BME280;12047;53.450;-2.286;2023-02-01T05:00:40;101766.31;;;11.35;100.00
23733;BME280;12047;53.450;-2.286;2023-02-01T05:05:40;101770.56;;;11.60;100.00
23733;BME280;12047;53.450;-2.286;2023-02-01T05:10:41;101776.91;;;11.46;100.00
23733;BME280;12047;53.450;-2.286;2023-02-01T05:15:42;101776.94;;;11.57;100.00
23733;BME280;12047;53.450;-2.286;2023-02-01T05:20:43;101767.53;;;11.65;100.00
23733;BME280;12047;53.450;-2.286;2023-02-01T05:25:43;101772.41;;;11.82;100.00
23733;BME280;12047;53.450;-2.286;2023-02-01T05:30:44;101778.56;;;12.05;100.00
23733;BME280;12047;53.450;-2.286;2023-02-01T05:35:44;101769.84;;;12.14;100.00
23733;BME280;12047;53.450;-2.286;2023-02-01T05:40:45;101758.25;;;11.70;100.00
23733;BME280;12047;53.450;-2.286;2023-02-01T05:45:51;101759.50;;;12.00;100.00
23733;BME280;12047;53.450;-2.286;2023-02-01T05:50:53;101762.97;;;11.89;100.00
23733;BME280;12047;53.450;-2.286;2023-02-01T05:55:56;101764.19;;;11.96;100.00
23733;BME280;12047;53.450;-2.286;2023-02-01T06:00:59;101760.72;;;11.84;100.00
23733;BME280;12047;53.450;-2.286;2023-02-01T06:06:00;101740.06;;;11.99;100.00
23733;BME280;12047;53.450;-2.286;2023-02-01T06:11:03;101746.06;;;12.35;100.00
23733;BME280;12047;53.450;-2.286;2023-02-01T06:16:05;101751.75;;;12.19;100.00
23733;BME280;12047;53.450;-2.286;2023-02-01T06:21:08;101752.00;;;11.93;100.00
23733;BME280;12047;53.450;-2.286;2023-02-01T06:26:09;101738.56;;;12.17;100.00
23733;BME280;12047;53.450;-2.286;2023-02-01T06:31:10;101741.47;;;12.14;100.00
23733;BME280;12047;53.450;-2.286;2023-02-01T06:36:13;101745.09;;;12.36;100.00
23733;BME280;12047;53.450;-2.286;2023-02-01T06:41:13;101743.56;;;12.00;100.00
23733;BME280;12047;53.450;-2.286;2023-02-01T06:46:14;101738.69;;;12.16;100.00
23733;BME280;12047;53.450;-2.286;2023-02-01T06:51:22;101748.66;;;12.57;100.00
23733;BME280;12047;53.450;-2.286;2023-02-01T06:56:27;101749.81;;;12.32;100.00
23733;BME280;12047;53.450;-2.286;2023-02-01T07:01:30;101738.41;;;12.41;100.00
23733;BME280;12047;53.450;-2.286;2023-02-01T07:06:31;101741.19;;;12.40;100.00
23733;BME280;12047;53.450;-2.286;2023-02-01T07:11:34;101742.13;;;12.50;100.00
23733;BME280;12047;53.450;-2.286;2023-02-01T07:16:41;101743.81;;;12.51;100.00
23733;BME280;12047;53.450;-2.286;2023-02-01T07:21:50;101742.13;;;12.50;100.00
23733;BME280;12047;53.450;-2.286;2023-02-01T07:26:51;101741.19;;;12.40;100.00
23733;BME280;12047;53.450;-2.286;2023-02-01T07:32:01;101758.59;;;12.76;100.00
23733;BME280;12047;53.450;-2.286;2023-02-01T07:37:05;101765.75;;;12.64;100.00
23733;BME280;12047;53.450;-2.286;2023-02-01T07:42:06;101759.13;;;12.90;100.00
23733;BME280;12047;53.450;-2.286;2023-02-01T07:47:07;101764.53;;;12.36;100.00
23733;BME280;12047;53.450;-2.286;2023-02-01T07:52:08;101754.16;;;12.65;100.00
23733;BME280;12047;53.450;-2.286;2023-02-01T07:57:08;101760.03;;;12.80;100.00
23733;BME280;12047;53.450;-2.286;2023-02-01T08:02:11;101777.22;;;12.76;100.00
23733;BME280;12047;53.450;-2.286;2023-02-01T08:07:13;101775.78;;;13.04;100.00
23733;BME280;12047;53.450;-2.286;2023-02-01T08:12:14;101786.84;;;12.45;100.00
23733;BME280;12047;53.450;-2.286;2023-02-01T08:17:14;101776.97;;;12.79;100.00
23733;BME280;12047;53.450;-2.286;2023-02-01T08:22:15;101784.53;;;12.94;100.00
23733;BME280;12047;53.450;-2.286;2023-02-01T08:27:16;101782.06;;;12.71;100.00
23733;BME280;12047;53.450;-2.286;2023-02-01T08:32:20;101787.22;;;13.15;100.00
23733;BME280;12047;53.450;-2.286;2023-02-01T08:37:21;101771.03;;;12.86;100.00
23733;BME280;12047;53.450;-2.286;2023-02-01T08:42:22;101781.47;;;13.52;100.00
23733;BME280;12047;53.450;-2.286;2023-02-01T08:47:41;101769.25;;;12.76;100.00
23733;BME280;12047;53.450;-2.286;2023-02-01T08:52:42;101772.88;;;13.07;100.00
23733;BME280;12047;53.450;-2.286;2023-02-01T08:57:43;101756.44;;;13.02;100.00
23733;BME280;12047;53.450;-2.286;2023-02-01T09:02:44;101760.28;;;13.09;100.00
23733;BME280;12047;53.450;-2.286;2023-02-01T09:07:45;101776.75;;;13.03;100.00
23733;BME280;12047;53.450;-2.286;2023-02-01T09:12:46;101760.38;;;13.18;100.00
23733;BME280;12047;53.450;-2.286;2023-02-01T09:17:46;101761.00;;;13.11;100.00
23733;BME280;12047;53.450;-2.286;2023-02-01T09:22:47;101770.25;;;12.95;100.00
23733;BME280;12047;53.450;-2.286;2023-02-01T09:27:47;101755.44;;;12.82;100.00
23733;BME280;12047;53.450;-2.286;2023-02-01T09:32:48;101772.97;;;13.37;100.00
23733;BME280;12047;53.450;-2.286;2023-02-01T09:37:48;101775.50;;;13.18;100.00
23733;BME280;12047;53.450;-2.286;2023-02-01T09:48:01;101778.06;;;13.71;100.00
23733;BME280;12047;53.450;-2.286;2023-02-01T09:53:27;101789.59;;;13.30;100.00
23733;BME280;12047;53.450;-2.286;2023-02-01T09:58:35;101778.56;;;13.34;100.00
23733;BME280;12047;53.450;-2.286;2023-02-01T10:03:37;101783.22;;;13.42;100.00
23733;BME280;12047;53.450;-2.286;2023-02-01T10:14:08;101790.06;;;13.55;100.00
23733;BME280;12047;53.450;-2.286;2023-02-01T10:19:21;101803.53;;;13.63;100.00
23733;BME280;12047;53.450;-2.286;2023-02-01T10:29:38;101801.47;;;13.67;100.00
23733;BME280;12047;53.450;-2.286;2023-02-01T10:34:41;101808.69;;;13.55;100.00
23733;BME280;12047;53.450;-2.286;2023-02-01T10:39:42;101808.28;;;13.18;100.00
23733;BME280;12047;53.450;-2.286;2023-02-01T10:44:44;101812.34;;;13.34;100.00
23733;BME280;12047;53.450;-2.286;2023-02-01T10:50:16;101819.72;;;13.72;100.00
23733;BME280;12047;53.450;-2.286;2023-02-01T10:55:39;101819.97;;;13.69;100.00
23733;BME280;12047;53.450;-2.286;2023-02-01T11:01:03;101816.97;;;13.83;100.00
23733;BME280;12047;53.450;-2.286;2023-02-01T11:11:21;101828.22;;;13.66;100.00
23733;BME280;12047;53.450;-2.286;2023-02-01T11:16:37;101817.06;;;13.51;100.00
23733;BME280;12047;53.450;-2.286;2023-02-01T11:21:38;101816.69;;;13.55;100.00
23733;BME280;12047;53.450;-2.286;2023-02-01T11:26:40;101809.47;;;13.46;100.00
23733;BME280;12047;53.450;-2.286;2023-02-01T11:31:41;101816.41;;;13.79;100.00
23733;BME280;12047;53.450;-2.286;2023-02-01T11:36:46;101791.59;;;13.79;100.00
23733;BME280;12047;53.450;-2.286;2023-02-01T11:47:20;101820.63;;;13.61;100.00
23733;BME280;12047;53.450;-2.286;2023-02-01T12:03:33;101822.53;;;13.49;100.00
23733;BME280;12047;53.450;-2.286;2023-02-01T12:14:24;101820.31;;;13.34;100.00
23733;BME280;12047;53.450;-2.286;2023-02-01T12:46:41;101792.13;;;13.52;100.00
23733;BME280;12047;53.450;-2.286;2023-02-01T12:51:52;101791.34;;;13.40;100.00
23733;BME280;12047;53.450;-2.286;2023-02-01T12:57:01;101795.50;;;13.54;100.00
23733;BME280;12047;53.450;-2.286;2023-02-01T13:02:28;101786.38;;;13.77;100.00
23733;BME280;12047;53.450;-2.286;2023-02-01T13:07:45;101794.78;;;13.52;100.00
23733;BME280;12047;53.450;-2.286;2023-02-01T13:13:01;101788.06;;;14.09;100.00
23733;BME280;12047;53.450;-2.286;2023-02-01T13:18:05;101795.44;;;13.95;100.00
23733;BME280;12047;53.450;-2.286;2023-02-01T13:23:35;101800.72;;;13.86;100.00
23733;BME280;12047;53.450;-2.286;2023-02-01T13:29:22;101789.75;;;14.10;100.00
23733;BME280;12047;53.450;-2.286;2023-02-01T13:45:33;101793.75;;;13.94;100.00
23733;BME280;12047;53.450;-2.286;2023-02-01T14:03:17;101799.63;;;13.68;100.00
23733;BME280;12047;53.450;-2.286;2023-02-01T14:26:03;101805.88;;;14.08;100.00
23733;BME280;12047;53.450;-2.286;2023-02-01T14:42:52;101808.97;;;14.13;100.00
23733;BME280;12047;53.450;-2.286;2023-02-01T15:03:42;101821.81;;;13.99;100.00
23733;BME280;12047;53.450;-2.286;2023-02-01T15:08:45;101827.44;;;13.75;100.00
23733;BME280;12047;53.450;-2.286;2023-02-01T15:13:54;101850.25;;;14.19;100.00
23733;BME280;12047;53.450;-2.286;2023-02-01T15:25:26;101876.25;;;14.26;100.00
23733;BME280;12047;53.450;-2.286;2023-02-01T16:05:40;101868.59;;;14.12;100.00
23733;BME280;12047;53.450;-2.286;2023-02-01T16:16:58;101863.41;;;13.90;100.00
23733;BME280;12047;53.450;-2.286;2023-02-01T16:21:59;101863.94;;;14.05;100.00
23733;BME280;12047;53.450;-2.286;2023-02-01T16:27:00;101875.69;;;14.63;100.00
23733;BME280;12047;53.450;-2.286;2023-02-01T16:32:00;101889.03;;;14.33;100.00
23733;BME280;12047;53.450;-2.286;2023-02-01T16:37:12;101878.81;;;14.38;100.00
23733;BME280;12047;53.450;-2.286;2023-02-01T16:42:18;101884.69;;;14.32;100.00
23733;BME280;12047;53.450;-2.286;2023-02-01T16:47:38;101891.25;;;14.27;100.00
23733;BME280;12047;53.450;-2.286;2023-02-01T16:52:47;101899.94;;;14.50;100.00
23733;BME280;12047;53.450;-2.286;2023-02-01T16:57:47;101908.75;;;14.20;100.00
23733;BME280;12047;53.450;-2.286;2023-02-01T17:09:12;101912.28;;;14.21;100.00
23733;BME280;12047;53.450;-2.286;2023-02-01T17:20:35;101929.56;;;14.26;100.00
23733;BME280;12047;53.450;-2.286;2023-02-01T17:31:25;101936.03;;;14.03;100.00
23733;BME280;12047;53.450;-2.286;2023-02-01T17:36:38;101945.69;;;14.46;100.00
23733;BME280;12047;53.450;-2.286;2023-02-01T17:42:24;101945.84;;;13.82;100.00
23733;BME280;12047;53.450;-2.286;2023-02-01T17:59:42;101960.50;;;14.39;100.00
23733;BME280;12047;53.450;-2.286;2023-02-01T18:11:24;101963.44;;;14.15;100.00
23733;BME280;12047;53.450;-2.286;2023-02-01T18:16:30;101961.22;;;14.20;100.00
23733;BME280;12047;53.450;-2.286;2023-02-01T18:27:57;101967.16;;;14.44;100.00
23733;BME280;12047;53.450;-2.286;2023-02-01T18:32:58;101965.47;;;14.74;100.00
23733;BME280;12047;53.450;-2.286;2023-02-01T18:37:58;101978.84;;;14.53;100.00
23733;BME280;12047;53.450;-2.286;2023-02-01T18:42:59;101963.19;;;14.69;100.00
23733;BME280;12047;53.450;-2.286;2023-02-01T18:48:23;101965.53;;;14.53;100.00
23733;BME280;12047;53.450;-2.286;2023-02-01T19:26:01;101987.97;;;14.50;100.00
23733;BME280;12047;53.450;-2.286;2023-02-01T19:31:06;101981.59;;;14.42;100.00
23733;BME280;12047;53.450;-2.286;2023-02-01T19:36:35;101973.06;;;14.48;100.00
23733;BME280;12047;53.450;-2.286;2023-02-01T19:41:40;101978.59;;;14.14;100.00
23733;BME280;12047;53.450;-2.286;2023-02-01T19:46:43;101982.19;;;14.45;100.00
23733;BME280;12047;53.450;-2.286;2023-02-01T19:51:44;101969.75;;;13.93;100.00
23733;BME280;12047;53.450;-2.286;2023-02-01T19:56:47;101971.19;;;14.18;100.00
23733;BME280;12047;53.450;-2.286;2023-02-01T20:01:50;101976.75;;;13.94;100.00
23733;BME280;12047;53.450;-2.286;2023-02-01T20:06:51;101976.72;;;14.05;100.00
23733;BME280;12047;53.450;-2.286;2023-02-01T20:12:07;101985.03;;;14.12;100.00
23733;BME280;12047;53.450;-2.286;2023-02-01T20:17:13;101987.69;;;13.91;100.00
23733;BME280;12047;53.450;-2.286;2023-02-01T20:22:25;101987.03;;;13.78;100.00
23733;BME280;12047;53.450;-2.286;2023-02-01T20:27:25;101983.72;;;13.53;100.00
23733;BME280;12047;53.450;-2.286;2023-02-01T20:32:26;101989.31;;;13.39;100.00
23733;BME280;12047;53.450;-2.286;2023-02-01T20:37:29;101991.91;;;13.61;100.00
23733;BME280;12047;53.450;-2.286;2023-02-01T20:42:42;101996.47;;;13.82;100.00
23733;BME280;12047;53.450;-2.286;2023-02-01T20:47:53;102004.56;;;13.48;100.00
23733;BME280;12047;53.450;-2.286;2023-02-01T20:52:59;101997.91;;;13.43;100.00
23733;BME280;12047;53.450;-2.286;2023-02-01T20:58:00;101990.38;;;13.59;100.00
23733;BME280;12047;53.450;-2.286;2023-02-01T21:03:01;101990.63;;;13.56;100.00
23733;BME280;12047;53.450;-2.286;2023-02-01T21:08:02;101963.59;;;13.28;100.00
23733;BME280;12047;53.450;-2.286;2023-02-01T21:13:04;101975.19;;;13.71;100.00
23733;BME280;12047;53.450;-2.286;2023-02-01T21:18:08;101983.41;;;14.20;100.00
23733;BME280;12047;53.450;-2.286;2023-02-01T21:23:14;101983.56;;;13.87;100.00
23733;BME280;12047;53.450;-2.286;2023-02-01T21:28:18;101992.28;;;13.89;100.00
23733;BME280;12047;53.450;-2.286;2023-02-01T21:33:19;101983.41;;;13.79;100.00
23733;BME280;12047;53.450;-2.286;2023-02-01T21:38:20;101989.34;;;13.71;100.00
23733;BME280;12047;53.450;-2.286;2023-02-01T21:43:20;101984.84;;;14.04;100.00
23733;BME280;12047;53.450;-2.286;2023-02-01T21:48:21;101985.22;;;13.99;100.00
23733;BME280;12047;53.450;-2.286;2023-02-01T21:53:23;102002.25;;;13.55;100.00
23733;BME280;12047;53.450;-2.286;2023-02-01T21:58:23;102000.44;;;13.44;100.00
23733;BME280;12047;53.450;-2.286;2023-02-01T22:03:24;102008.25;;;13.36;100.00
23733;BME280;12047;53.450;-2.286;2023-02-01T22:08:25;101999.41;;;13.68;100.00
23733;BME280;12047;53.450;-2.286;2023-02-01T22:13:26;101995.59;;;13.49;100.00
23733;BME280;12047;53.450;-2.286;2023-02-01T22:18:27;102001.41;;;13.54;100.00
23733;BME280;12047;53.450;-2.286;2023-02-01T22:23:29;102002.56;;;13.61;100.00
23733;BME280;12047;53.450;-2.286;2023-02-01T22:28:33;101999.84;;;13.84;100.00
23733;BME280;12047;53.450;-2.286;2023-02-01T22:33:34;102007.56;;;13.55;100.00
23733;BME280;12047;53.450;-2.286;2023-02-01T22:38:35;102010.72;;;13.60;100.00
23733;BME280;12047;53.450;-2.286;2023-02-01T22:43:36;102006.38;;;13.48;100.00
23733;BME280;12047;53.450;-2.286;2023-02-01T22:48:38;102005.44;;;13.81;100.00
23733;BME280;12047;53.450;-2.286;2023-02-01T22:53:45;102005.22;;;13.61;100.00
23733;BME280;12047;53.450;-2.286;2023-02-01T22:59:10;102018.41;;;13.74;100.00
23733;BME280;12047;53.450;-2.286;2023-02-01T23:04:14;102018.81;;;13.58;100.00
23733;BME280;12047;53.450;-2.286;2023-02-01T23:09:15;102015.75;;;13.63;100.00
23733;BME280;12047;53.450;-2.286;2023-02-01T23:14:19;102012.72;;;13.68;100.00
23733;BME280;12047;53.450;-2.286;2023-02-01T23:19:20;102021.16;;;13.41;100.00
23733;BME280;12047;53.450;-2.286;2023-02-01T23:24:24;102029.84;;;13.86;100.00
23733;BME280;12047;53.450;-2.286;2023-02-01T23:29:27;102024.81;;;13.72;100.00
23733;BME280;12047;53.450;-2.286;2023-02-01T23:34:41;102026.94;;;13.89;100.00
23733;BME280;12047;53.450;-2.286;2023-02-01T23:39:43;102025.34;;;13.86;100.00
23733;BME280;12047;53.450;-2.286;2023-02-01T23:44:43;102042.63;;;14.03;100.00
23733;BME280;12047;53.450;-2.286;2023-02-01T23:49:51;102051.38;;;13.94;100.00
23733;BME280;12047;53.450;-2.286;2023-02-01T23:54:55;102053.31;;;14.24;100.00
23733;BME280;12047;53.450;-2.286;2023-02-01T23:59:56;102045.19;;;14.25;100.00
